Time;durP1;ratioP1;P1;durP2;ratioP2;P2;SDS_P1;SDS_P2;PMS_P1;PMS_P2;Temp;Humidity;BMP_temperature;BMP_pressure;BME280_temperature;BME280_humidity;BME280_pressure;Samples;Min_cycle;Max_cycle;Signal;HPM_P1;HPM_P2
2021/09/17 00:00:15;;;;;;;;;;;21.40;68.30;;;;;;5038764;28;19909;-66
2021/09/17 00:02:41;;;;;;;;;;;21.50;69.10;;;;;;5038223;28;19913;-67
2021/09/17 00:05:06;;;;;;;;;;;21.50;68.50;;;;;;5033235;28;20443;-66
2021/09/17 00:07:32;;;;;;;;;;;21.40;68.60;;;;;;5005815;28;19952;-66
2021/09/17 00:09:57;;;;;;;;;;;21.40;68.50;;;;;;5034709;28;20333;-66
2021/09/17 00:12:23;;;;;;;;;;;21.40;68.50;;;;;;5030292;28;19917;-65
2021/09/17 00:14:48;;;;;;;;;;;21.40;68.60;;;;;;5041577;28;19924;-64
2021/09/17 00:17:14;;;;;;;;;;;21.40;68.60;;;;;;5044612;28;20223;-64
2021/09/17 00:19:39;;;;;;;;;;;21.40;68.70;;;;;;5036724;28;19916;-64
2021/09/17 00:22:04;;;;;;;;;;;21.40;68.50;;;;;;5037247;28;19909;-65
2021/09/17 00:24:30;;;;;;;;;;;21.40;68.60;;;;;;5029501;28;19936;-65
2021/09/17 00:26:55;;;;;;;;;;;21.40;68.60;;;;;;5033904;28;19912;-65
2021/09/17 00:29:21;;;;;;;;;;;21.40;68.60;;;;;;5026151;28;19917;-65
2021/09/17 00:31:46;;;;;;;;;;;21.40;68.70;;;;;;5039914;28;19919;-64
2021/09/17 00:34:12;;;;;;;;;;;21.40;68.80;;;;;;5045828;28;19955;-67
2021/09/17 00:36:37;;;;;;;;;;;21.40;68.80;;;;;;5032782;28;19917;-64
2021/09/17 00:39:03;;;;;;;;;;;21.40;68.70;;;;;;5032844;28;20377;-65
2021/09/17 00:41:28;;;;;;;;;;;21.40;68.70;;;;;;5013135;28;20177;-67
2021/09/17 00:43:54;;;;;;;;;;;21.40;68.60;;;;;;5034847;28;19912;-65
2021/09/17 00:46:20;;;;;;;;;;;21.40;68.80;;;;;;5028084;28;20456;-66
2021/09/17 00:48:45;;;;;;;;;;;21.40;68.70;;;;;;5042165;28;19996;-68
2021/09/17 00:51:11;;;;;;;;;;;21.40;68.70;;;;;;5018151;28;19909;-67
2021/09/17 00:53:36;;;;;;;;;;;21.30;68.80;;;;;;5039280;28;19917;-65
2021/09/17 00:56:03;;;;;;;;;;;21.30;68.80;;;;;;5027865;28;19920;-66
2021/09/17 00:58:28;;;;;;;;;;;21.40;68.80;;;;;;5039889;28;20000;-65
2021/09/17 01:00:54;;;;;;;;;;;21.30;68.70;;;;;;5041904;28;19996;-66
2021/09/17 01:03:19;;;;;;;;;;;21.40;68.80;;;;;;5029873;28;19916;-66
2021/09/17 01:05:44;;;;;;;;;;;21.40;68.70;;;;;;5033288;28;20015;-65
2021/09/17 01:08:10;;;;;;;;;;;21.40;68.60;;;;;;5035791;28;19916;-65
2021/09/17 01:10:35;;;;;;;;;;;21.40;68.60;;;;;;5035470;28;20391;-66
2021/09/17 01:13:01;;;;;;;;;;;21.30;68.70;;;;;;5035356;28;19912;-66
2021/09/17 01:15:26;;;;;;;;;;;21.40;68.60;;;;;;5032520;28;19921;-65
2021/09/17 01:17:52;;;;;;;;;;;21.40;68.60;;;;;;5029083;28;19917;-65
2021/09/17 01:20:18;;;;;;;;;;;21.40;68.50;;;;;;5045915;28;19928;-65
2021/09/17 01:22:44;;;;;;;;;;;21.30;68.60;;;;;;5025501;28;19914;-65
2021/09/17 01:25:10;;;;;;;;;;;21.40;68.60;;;;;;5036305;28;19905;-65
2021/09/17 01:27:35;;;;;;;;;;;21.30;68.60;;;;;;5038193;28;19935;-66
2021/09/17 01:30:01;;;;;;;;;;;21.30;68.60;;;;;;5017690;28;20619;-66
2021/09/17 01:32:26;;;;;;;;;;;21.30;68.60;;;;;;5028030;28;20113;-65
2021/09/17 01:34:52;;;;;;;;;;;21.30;68.70;;;;;;5030151;28;19963;-66
2021/09/17 01:37:17;;;;;;;;;;;21.30;68.60;;;;;;5036805;28;20007;-66
2021/09/17 01:39:42;;;;;;;;;;;21.30;68.60;;;;;;5039150;28;20381;-65
2021/09/17 01:42:08;;;;;;;;;;;21.30;68.50;;;;;;5036222;28;19928;-65
2021/09/17 01:44:34;;;;;;;;;;;21.30;68.60;;;;;;5036903;28;19997;-65
2021/09/17 01:46:59;;;;;;;;;;;21.30;68.20;;;;;;5038662;28;19919;-65
2021/09/17 01:49:25;;;;;;;;;;;21.30;68.40;;;;;;5031205;28;19909;-66
2021/09/17 01:51:53;;;;;;;;;;;21.30;68.40;;;;;;5040606;28;19905;-65
2021/09/17 01:54:18;;;;;;;;;;;21.30;68.40;;;;;;5032728;28;19910;-67
2021/09/17 01:56:44;;;;;;;;;;;21.30;68.40;;;;;;5039660;28;20011;-67
2021/09/17 01:59:09;;;;;;;;;;;21.30;68.30;;;;;;5037278;28;19918;-66
2021/09/17 02:01:35;;;;;;;;;;;21.30;68.30;;;;;;5037761;28;19975;-67
2021/09/17 02:04:01;;;;;;;;;;;21.30;68.50;;;;;;5007564;28;20341;-67
2021/09/17 02:06:26;;;;;;;;;;;21.30;68.40;;;;;;5037069;28;19955;-64
2021/09/17 02:08:52;;;;;;;;;;;21.30;68.40;;;;;;5041599;28;19904;-65
2021/09/17 02:11:17;;;;;;;;;;;21.30;68.40;;;;;;5035863;28;19990;-66
2021/09/17 02:13:43;;;;;;;;;;;21.30;68.50;;;;;;5028755;28;19947;-66
2021/09/17 02:16:08;;;;;;;;;;;21.30;68.50;;;;;;5039957;28;20412;-65
2021/09/17 02:18:34;;;;;;;;;;;21.30;68.50;;;;;;5030961;28;19913;-66
2021/09/17 02:20:59;;;;;;;;;;;21.30;68.70;;;;;;5035847;28;19976;-66
2021/09/17 02:23:25;;;;;;;;;;;21.30;68.50;;;;;;5045356;28;19916;-65
2021/09/17 02:25:50;;;;;;;;;;;21.30;68.50;;;;;;5034167;28;20271;-67
2021/09/17 02:28:16;;;;;;;;;;;21.30;68.50;;;;;;5035724;28;19928;-66
2021/09/17 02:30:41;;;;;;;;;;;21.30;68.30;;;;;;5032872;28;19905;-66
2021/09/17 02:33:06;;;;;;;;;;;21.30;68.50;;;;;;5044638;28;20367;-66
2021/09/17 02:35:32;;;;;;;;;;;21.30;68.30;;;;;;5013318;28;19955;-66
2021/09/17 02:37:57;;;;;;;;;;;21.30;68.40;;;;;;5010399;28;19909;-66
2021/09/17 02:40:23;;;;;;;;;;;21.30;68.40;;;;;;5011406;28;20629;-66
2021/09/17 02:42:48;;;;;;;;;;;21.30;68.40;;;;;;5034114;28;19909;-65
2021/09/17 02:45:14;;;;;;;;;;;21.30;68.50;;;;;;5034626;28;20164;-66
2021/09/17 02:47:39;;;;;;;;;;;21.30;68.30;;;;;;5045860;28;19924;-66
2021/09/17 02:50:05;;;;;;;;;;;21.30;68.30;;;;;;5031758;28;20016;-66
2021/09/17 02:52:30;;;;;;;;;;;21.30;68.30;;;;;;5034859;28;20069;-66
2021/09/17 02:54:56;;;;;;;;;;;21.20;68.20;;;;;;5046801;28;19909;-66
2021/09/17 02:57:21;;;;;;;;;;;21.20;68.30;;;;;;5039334;28;20002;-67
2021/09/17 02:59:47;;;;;;;;;;;21.30;68.30;;;;;;5043785;28;19917;-66
2021/09/17 03:02:12;;;;;;;;;;;21.30;68.30;;;;;;5027724;28;20287;-66
2021/09/17 03:04:38;;;;;;;;;;;21.20;68.20;;;;;;5039324;28;19909;-66
2021/09/17 03:07:03;;;;;;;;;;;21.20;68.50;;;;;;5024304;28;19922;-66
2021/09/17 03:09:29;;;;;;;;;;;21.30;68.50;;;;;;5037376;28;20399;-66
2021/09/17 03:11:55;;;;;;;;;;;21.20;68.50;;;;;;5027686;28;19915;-66
2021/09/17 03:14:20;;;;;;;;;;;21.20;68.40;;;;;;5034534;28;19904;-66
2021/09/17 03:16:46;;;;;;;;;;;21.20;68.40;;;;;;5042464;28;20283;-66
2021/09/17 03:19:11;;;;;;;;;;;21.20;68.50;;;;;;5036948;28;19909;-66
2021/09/17 03:21:36;;;;;;;;;;;21.20;68.40;;;;;;5038279;28;19933;-66
2021/09/17 03:24:02;;;;;;;;;;;21.20;68.20;;;;;;5011781;28;19916;-66
2021/09/17 03:26:27;;;;;;;;;;;21.20;68.50;;;;;;5037090;28;20011;-66
2021/09/17 03:28:53;;;;;;;;;;;21.20;68.40;;;;;;5040571;28;19915;-66
2021/09/17 03:31:18;;;;;;;;;;;21.20;68.40;;;;;;5036450;28;20330;-66
2021/09/17 03:33:44;;;;;;;;;;;21.20;68.30;;;;;;5039502;28;19905;-66
2021/09/17 03:36:09;;;;;;;;;;;21.20;68.40;;;;;;5047805;28;19915;-67
2021/09/17 03:38:35;;;;;;;;;;;21.20;68.50;;;;;;5037551;28;20314;-66
2021/09/17 03:41:00;;;;;;;;;;;21.20;68.30;;;;;;5043331;28;19913;-65
2021/09/17 03:43:25;;;;;;;;;;;21.20;68.00;;;;;;5034199;28;19962;-67
2021/09/17 03:45:51;;;;;;;;;;;21.20;68.40;;;;;;5035266;28;19915;-65
2021/09/17 03:48:16;;;;;;;;;;;21.20;68.40;;;;;;5030800;28;20276;-65
2021/09/17 03:50:42;;;;;;;;;;;21.20;68.30;;;;;;5028088;28;19976;-66
2021/09/17 03:53:07;;;;;;;;;;;21.20;68.40;;;;;;5040753;28;19913;-66
2021/09/17 03:55:34;;;;;;;;;;;21.20;68.20;;;;;;5014870;28;19910;-67
2021/09/17 03:57:59;;;;;;;;;;;21.20;68.40;;;;;;5026947;28;19909;-66
2021/09/17 04:00:25;;;;;;;;;;;21.20;68.00;;;;;;5030966;28;19906;-66
2021/09/17 04:02:50;;;;;;;;;;;21.20;68.10;;;;;;5039969;28;19917;-67
2021/09/17 04:05:16;;;;;;;;;;;21.20;68.30;;;;;;5022182;28;20392;-66
2021/09/17 04:07:42;;;;;;;;;;;21.20;68.50;;;;;;5023896;28;19959;-66
2021/09/17 04:10:08;;;;;;;;;;;21.20;68.00;;;;;;5045167;28;19912;-67
2021/09/17 04:12:33;;;;;;;;;;;21.20;68.50;;;;;;5034672;28;20284;-67
2021/09/17 04:14:59;;;;;;;;;;;21.10;68.20;;;;;;5035889;28;19921;-66
2021/09/17 04:17:24;;;;;;;;;;;21.20;68.50;;;;;;5025538;28;19917;-66
2021/09/17 04:19:50;;;;;;;;;;;21.10;68.20;;;;;;5038519;28;20379;-66
2021/09/17 04:22:16;;;;;;;;;;;21.10;68.40;;;;;;5034570;28;19913;-66
2021/09/17 04:24:41;;;;;;;;;;;21.10;68.10;;;;;;5016042;28;19920;-66
2021/09/17 04:27:07;;;;;;;;;;;21.10;68.30;;;;;;5038488;28;20435;-66
2021/09/17 04:29:32;;;;;;;;;;;21.10;68.30;;;;;;5035303;28;19917;-67
2021/09/17 04:31:58;;;;;;;;;;;21.10;68.10;;;;;;5033312;28;19920;-66
2021/09/17 04:34:23;;;;;;;;;;;21.10;68.50;;;;;;5002347;28;20422;-66
2021/09/17 04:36:49;;;;;;;;;;;21.10;68.10;;;;;;5039669;28;19920;-66
2021/09/17 04:39:14;;;;;;;;;;;21.10;69.00;;;;;;5004284;28;19944;-67
2021/09/17 04:41:40;;;;;;;;;;;21.10;68.10;;;;;;5031353;28;20616;-67
2021/09/17 04:44:05;;;;;;;;;;;21.10;68.40;;;;;;5038278;28;20126;-67
2021/09/17 04:46:31;;;;;;;;;;;21.10;68.40;;;;;;5034800;28;20363;-66
2021/09/17 04:48:56;;;;;;;;;;;21.10;68.40;;;;;;5035012;28;20180;-66
2021/09/17 04:51:21;;;;;;;;;;;21.10;68.30;;;;;;5044581;28;19916;-67
2021/09/17 04:53:47;;;;;;;;;;;21.10;68.50;;;;;;5039851;28;19920;-67
2021/09/17 04:56:12;;;;;;;;;;;21.10;67.90;;;;;;5024658;28;20248;-67
2021/09/17 04:58:38;;;;;;;;;;;21.10;68.20;;;;;;5035983;28;20383;-65
2021/09/17 05:01:03;;;;;;;;;;;21.10;68.50;;;;;;5032223;28;19968;-68
2021/09/17 05:03:29;;;;;;;;;;;21.00;68.20;;;;;;5024071;28;19913;-66
2021/09/17 05:05:54;;;;;;;;;;;21.10;68.40;;;;;;5031616;28;19913;-67
2021/09/17 05:08:20;;;;;;;;;;;21.10;68.20;;;;;;5030553;28;20446;-67
2021/09/17 05:10:45;;;;;;;;;;;21.10;68.50;;;;;;5041835;28;19922;-66
2021/09/17 05:13:10;;;;;;;;;;;21.10;68.30;;;;;;5041265;28;19918;-67
2021/09/17 05:15:36;;;;;;;;;;;21.00;68.60;;;;;;5031974;28;19921;-65
2021/09/17 05:18:01;;;;;;;;;;;21.00;68.30;;;;;;5007623;28;19924;-62
2021/09/17 05:20:27;;;;;;;;;;;21.00;68.70;;;;;;5041015;28;20383;-65
2021/09/17 05:22:52;;;;;;;;;;;21.00;68.80;;;;;;5029671;28;19909;-66
2021/09/17 05:25:18;;;;;;;;;;;21.00;68.70;;;;;;5029088;28;19908;-66
2021/09/17 05:27:43;;;;;;;;;;;21.10;68.90;;;;;;5020928;28;19925;-67
2021/09/17 05:30:09;;;;;;;;;;;21.10;69.10;;;;;;5008892;28;20249;-68
2021/09/17 05:32:34;;;;;;;;;;;21.00;69.40;;;;;;5031221;28;19917;-67
2021/09/17 05:34:59;;;;;;;;;;;21.00;69.40;;;;;;5031504;28;19920;-67
2021/09/17 05:37:25;;;;;;;;;;;21.00;69.20;;;;;;5033464;28;19917;-66
2021/09/17 05:39:50;;;;;;;;;;;21.00;69.40;;;;;;5032858;28;19916;-68
2021/09/17 05:42:16;;;;;;;;;;;21.00;69.60;;;;;;5027236;28;20379;-67
2021/09/17 05:44:41;;;;;;;;;;;21.00;70.00;;;;;;5012231;28;19924;-66
2021/09/17 05:47:07;;;;;;;;;;;21.00;70.10;;;;;;5035152;28;20063;-68
2021/09/17 05:49:32;;;;;;;;;;;21.00;70.40;;;;;;5035473;28;19959;-66
2021/09/17 05:51:58;;;;;;;;;;;21.00;70.60;;;;;;5032232;28;19909;-68
2021/09/17 05:54:23;;;;;;;;;;;21.00;70.60;;;;;;5031736;28;21522;-67
2021/09/17 05:56:48;;;;;;;;;;;21.00;70.90;;;;;;5043140;28;19974;-65
2021/09/17 05:59:14;;;;;;;;;;;21.00;70.60;;;;;;5038598;28;19944;-66
2021/09/17 06:01:39;;;;;;;;;;;21.00;69.90;;;;;;5034674;28;20577;-65
2021/09/17 06:04:05;;;;;;;;;;;21.00;70.00;;;;;;5028167;28;19940;-66
2021/09/17 06:06:30;;;;;;;;;;;21.00;69.40;;;;;;5030532;28;19959;-65
2021/09/17 06:08:57;;;;;;;;;;;21.00;69.40;;;;;;5027595;28;19921;-66
2021/09/17 06:11:22;;;;;;;;;;;21.00;69.40;;;;;;5038985;28;20004;-66
2021/09/17 06:13:48;;;;;;;;;;;21.00;68.30;;;;;;5042862;28;20012;-65
2021/09/17 06:16:13;;;;;;;;;;;21.00;69.10;;;;;;5044724;28;20284;-66
2021/09/17 06:18:39;;;;;;;;;;;21.00;69.30;;;;;;5027383;28;19909;-67
2021/09/17 06:21:04;;;;;;;;;;;20.90;69.90;;;;;;5030576;28;19916;-65
2021/09/17 06:23:30;;;;;;;;;;;21.00;69.20;;;;;;5036776;28;19963;-66
2021/09/17 06:25:56;;;;;;;;;;;20.90;69.40;;;;;;5032993;28;19972;-66
2021/09/17 06:28:25;;;;;;;;;;;20.90;69.10;;;;;;5034367;28;20518;-65
2021/09/17 06:30:50;;;;;;;;;;;20.90;68.80;;;;;;5036572;28;19909;-66
2021/09/17 06:33:16;;;;;;;;;;;20.90;68.70;;;;;;5037286;28;19931;-65
2021/09/17 06:35:41;;;;;;;;;;;20.90;69.00;;;;;;5035281;28;19917;-67
2021/09/17 06:38:07;;;;;;;;;;;20.90;69.00;;;;;;5042778;28;19931;-65
2021/09/17 06:40:32;;;;;;;;;;;20.90;69.70;;;;;;5039968;28;20295;-65
2021/09/17 06:42:57;;;;;;;;;;;20.90;69.40;;;;;;5038776;28;20394;-64
2021/09/17 06:45:23;;;;;;;;;;;20.90;69.00;;;;;;5036226;28;19924;-65
2021/09/17 06:47:53;;;;;;;;;;;20.90;69.30;;;;;;5022531;28;20403;-65
2021/09/17 06:50:19;;;;;;;;;;;20.90;69.20;;;;;;5035514;28;19952;-65
2021/09/17 06:52:47;;;;;;;;;;;20.90;69.40;;;;;;5032902;28;19955;-65
2021/09/17 06:55:14;;;;;;;;;;;20.90;68.90;;;;;;5035125;28;20007;-65
2021/09/17 06:57:46;;;;;;;;;;;20.90;68.90;;;;;;5036739;28;19909;-65
2021/09/17 07:00:11;;;;;;;;;;;20.90;68.70;;;;;;5019356;28;19928;-65
2021/09/17 07:02:37;;;;;;;;;;;20.80;69.10;;;;;;5023548;28;19926;-66
2021/09/17 07:05:03;;;;;;;;;;;20.90;69.00;;;;;;5025586;28;19917;-65
2021/09/17 07:07:28;;;;;;;;;;;20.80;68.20;;;;;;5026145;28;19925;-66
2021/09/17 07:09:53;;;;;;;;;;;20.90;69.00;;;;;;5034765;28;19920;-66
2021/09/17 07:12:19;;;;;;;;;;;20.90;68.90;;;;;;5027699;28;20371;-65
2021/09/17 07:14:44;;;;;;;;;;;20.80;68.10;;;;;;5022713;28;19921;-64
2021/09/17 07:17:10;;;;;;;;;;;20.80;68.20;;;;;;5016618;28;19917;-66
2021/09/17 07:19:35;;;;;;;;;;;20.80;68.70;;;;;;5038476;28;19919;-67
2021/09/17 07:22:05;;;;;;;;;;;20.90;69.20;;;;;;5025190;28;20264;-64
2021/09/17 07:24:30;;;;;;;;;;;20.80;69.00;;;;;;5027539;28;19925;-63
2021/09/17 07:26:56;;;;;;;;;;;20.80;69.10;;;;;;5041355;28;20559;-65
2021/09/17 07:29:21;;;;;;;;;;;20.80;68.10;;;;;;5031722;28;19913;-66
2021/09/17 07:31:47;;;;;;;;;;;20.80;68.10;;;;;;5038254;28;19917;-65
2021/09/17 07:34:12;;;;;;;;;;;20.80;68.60;;;;;;5014332;28;19921;-64
2021/09/17 07:36:37;;;;;;;;;;;20.80;68.20;;;;;;5027912;28;20275;-64
2021/09/17 07:39:03;;;;;;;;;;;20.80;67.30;;;;;;5044073;28;20382;-65
2021/09/17 07:41:28;;;;;;;;;;;20.80;67.70;;;;;;5039831;28;19913;-63
2021/09/17 07:43:54;;;;;;;;;;;20.80;67.90;;;;;;5032255;28;20216;-63
2021/09/17 07:46:19;;;;;;;;;;;20.80;67.80;;;;;;5038149;28;19928;-66
2021/09/17 07:48:45;;;;;;;;;;;20.80;68.40;;;;;;5030275;28;20345;-65
2021/09/17 07:51:10;;;;;;;;;;;20.80;67.80;;;;;;5035192;28;19913;-65
2021/09/17 07:53:36;;;;;;;;;;;20.80;68.80;;;;;;5029849;28;19913;-65
2021/09/17 07:56:01;;;;;;;;;;;20.80;68.20;;;;;;5040826;28;19960;-65
2021/09/17 07:58:27;;;;;;;;;;;20.80;68.70;;;;;;5036354;28;19909;-63
2021/09/17 08:00:53;;;;;;;;;;;20.80;69.30;;;;;;5036415;28;19922;-66
2021/09/17 08:03:21;;;;;;;;;;;20.80;69.50;;;;;;5032668;28;19913;-66
2021/09/17 08:05:47;;;;;;;;;;;20.80;69.30;;;;;;5028304;28;19913;-66
2021/09/17 08:08:12;;;;;;;;;;;20.80;68.40;;;;;;5022404;28;19917;-66
2021/09/17 08:10:38;;;;;;;;;;;20.80;68.90;;;;;;5026047;28;19958;-66
2021/09/17 08:13:03;;;;;;;;;;;20.80;69.30;;;;;;5052363;28;19944;-65
2021/09/17 08:15:29;;;;;;;;;;;20.70;68.60;;;;;;5027711;28;19921;-64
2021/09/17 08:17:54;;;;;;;;;;;20.80;69.30;;;;;;5033319;28;19913;-67
2021/09/17 08:20:19;;;;;;;;;;;20.70;68.60;;;;;;5025674;28;19976;-65
2021/09/17 08:22:45;;;;;;;;;;;20.80;69.30;;;;;;5032767;28;19912;-67
2021/09/17 08:25:10;;;;;;;;;;;20.80;69.30;;;;;;5029325;28;20033;-66
2021/09/17 08:27:37;;;;;;;;;;;20.70;69.20;;;;;;5019707;28;19996;-65
2021/09/17 08:30:03;;;;;;;;;;;20.70;69.20;;;;;;5023961;28;19967;-66
2021/09/17 08:32:29;;;;;;;;;;;20.70;69.30;;;;;;5037858;28;19917;-66
2021/09/17 08:34:54;;;;;;;;;;;20.70;69.10;;;;;;5009570;28;19924;-67
2021/09/17 08:37:19;;;;;;;;;;;20.70;69.20;;;;;;5038030;28;19928;-67
2021/09/17 08:39:45;;;;;;;;;;;20.70;68.60;;;;;;5020483;28;19916;-66
2021/09/17 08:42:10;;;;;;;;;;;20.70;69.00;;;;;;5039676;28;19925;-66
2021/09/17 08:44:36;;;;;;;;;;;20.70;68.40;;;;;;5027567;28;20369;-67
2021/09/17 08:47:02;;;;;;;;;;;20.70;68.00;;;;;;5028500;28;19971;-66
2021/09/17 08:49:27;;;;;;;;;;;20.70;68.40;;;;;;5008207;28;19914;-66
2021/09/17 08:51:53;;;;;;;;;;;20.70;68.70;;;;;;5027028;28;19913;-67
2021/09/17 08:54:18;;;;;;;;;;;20.70;68.90;;;;;;5029980;28;20352;-66
2021/09/17 08:56:43;;;;;;;;;;;20.70;68.50;;;;;;5030016;28;19970;-64
2021/09/17 08:59:09;;;;;;;;;;;20.70;68.70;;;;;;5008802;28;20307;-65
2021/09/17 09:01:36;;;;;;;;;;;20.70;68.20;;;;;;5037515;28;19967;-67
2021/09/17 09:04:03;;;;;;;;;;;20.70;68.60;;;;;;5034991;28;19916;-66
2021/09/17 09:06:38;;;;;;;;;;;20.70;68.00;;;;;;5035598;28;19935;-65
2021/09/17 09:09:04;;;;;;;;;;;20.60;68.10;;;;;;5030877;28;19940;-66
2021/09/17 09:11:33;;;;;;;;;;;20.50;67.70;;;;;;5031655;28;19913;-67
2021/09/17 09:13:59;;;;;;;;;;;20.50;68.40;;;;;;5026566;28;19959;-65
2021/09/17 09:16:25;;;;;;;;;;;20.60;68.10;;;;;;5036572;28;19975;-66
2021/09/17 09:18:50;;;;;;;;;;;20.60;68.10;;;;;;5035519;28;19921;-67
2021/09/17 09:21:25;;;;;;;;;;;20.60;67.20;;;;;;5036927;28;20227;-66
2021/09/17 09:24:07;;;;;;;;;;;20.60;68.40;;;;;;5041393;28;19928;-65
2021/09/17 09:26:32;;;;;;;;;;;20.70;68.20;;;;;;5041667;28;19917;-64
2021/09/17 09:28:57;;;;;;;;;;;20.70;68.30;;;;;;5012907;28;20465;-67
2021/09/17 09:31:25;;;;;;;;;;;20.70;68.80;;;;;;5024102;28;21242;-66
2021/09/17 09:33:52;;;;;;;;;;;20.60;68.80;;;;;;5035450;28;19928;-68
2021/09/17 09:36:19;;;;;;;;;;;20.70;68.20;;;;;;5031254;28;19914;-67
2021/09/17 09:38:45;;;;;;;;;;;20.60;67.70;;;;;;5029897;28;20359;-67
2021/09/17 09:41:17;;;;;;;;;;;20.60;68.80;;;;;;5031410;28;19923;-67
2021/09/17 09:43:58;;;;;;;;;;;20.60;67.90;;;;;;5036589;28;19959;-67
2021/09/17 09:46:23;;;;;;;;;;;20.60;68.10;;;;;;5029854;28;20421;-66
2021/09/17 09:49:07;;;;;;;;;;;20.60;68.60;;;;;;5028886;28;19921;-67
2021/09/17 09:51:36;;;;;;;;;;;20.60;68.80;;;;;;5031687;28;20366;-66
2021/09/17 09:54:04;;;;;;;;;;;20.60;68.60;;;;;;5037030;28;20284;-67
2021/09/17 09:56:29;;;;;;;;;;;20.60;68.80;;;;;;5033527;28;19963;-66
2021/09/17 09:58:55;;;;;;;;;;;20.60;67.70;;;;;;5031055;28;19913;-66
2021/09/17 10:01:21;;;;;;;;;;;20.70;67.80;;;;;;5009087;28;19922;-67
2021/09/17 10:03:47;;;;;;;;;;;20.60;68.70;;;;;;5029549;28;20457;-66
2021/09/17 10:06:13;;;;;;;;;;;20.60;68.60;;;;;;5044253;28;19920;-67
2021/09/17 10:08:39;;;;;;;;;;;20.60;68.80;;;;;;5042495;28;19921;-66
2021/09/17 10:11:04;;;;;;;;;;;20.60;68.90;;;;;;5036941;28;19908;-66
2021/09/17 10:13:30;;;;;;;;;;;20.60;68.20;;;;;;5031174;28;20407;-67
2021/09/17 10:15:55;;;;;;;;;;;20.60;68.70;;;;;;5027521;28;19920;-68
2021/09/17 10:18:21;;;;;;;;;;;20.60;68.90;;;;;;5034145;28;19925;-67
2021/09/17 10:20:46;;;;;;;;;;;20.60;68.90;;;;;;5021714;28;19924;-66
2021/09/17 10:23:25;;;;;;;;;;;20.60;69.10;;;;;;5018191;28;19921;-68
2021/09/17 10:26:01;;;;;;;;;;;20.60;69.00;;;;;;5042310;28;19925;-67
2021/09/17 10:28:26;;;;;;;;;;;20.60;68.80;;;;;;5028152;28;19960;-66
2021/09/17 10:30:51;;;;;;;;;;;20.70;69.00;;;;;;5033430;28;19956;-66
2021/09/17 10:33:20;;;;;;;;;;;20.70;69.00;;;;;;5045088;28;20138;-67
2021/09/17 10:35:47;;;;;;;;;;;20.60;69.00;;;;;;5010637;28;19918;-66
2021/09/17 10:38:19;;;;;;;;;;;20.60;68.60;;;;;;5032083;28;19912;-67
2021/09/17 10:40:45;;;;;;;;;;;20.70;68.40;;;;;;5032722;28;20007;-67
2021/09/17 10:43:10;;;;;;;;;;;20.60;68.60;;;;;;5035560;28;20000;-68
2021/09/17 10:45:52;;;;;;;;;;;20.60;68.60;;;;;;5025116;28;19917;-67
2021/09/17 10:48:20;;;;;;;;;;;20.60;68.80;;;;;;5032939;28;19928;-66
2021/09/17 10:50:47;;;;;;;;;;;20.60;68.50;;;;;;5022016;28;20156;-67
2021/09/17 10:53:13;;;;;;;;;;;20.60;69.00;;;;;;5024569;28;19913;-68
2021/09/17 10:55:45;;;;;;;;;;;20.60;69.00;;;;;;5037923;28;19919;-67
2021/09/17 10:58:20;;;;;;;;;;;20.60;68.80;;;;;;5033818;28;20474;-67
2021/09/17 11:00:54;;;;;;;;;;;20.60;68.50;;;;;;5025126;28;19947;-67
2021/09/17 11:03:38;;;;;;;;;;;20.60;69.00;;;;;;5036734;28;20015;-67
2021/09/17 11:06:29;;;;;;;;;;;20.60;68.70;;;;;;5029971;28;19928;-68
2021/09/17 11:09:04;;;;;;;;;;;20.60;69.00;;;;;;5025159;28;19924;-67
2021/09/17 11:11:35;;;;;;;;;;;20.60;69.20;;;;;;5022609;28;19917;-67
2021/09/17 11:14:01;;;;;;;;;;;20.60;69.00;;;;;;5030336;28;19917;-67
2021/09/17 11:16:26;;;;;;;;;;;20.60;68.80;;;;;;5026212;28;19921;-66
2021/09/17 11:19:04;;;;;;;;;;;20.60;68.40;;;;;;5038912;28;19983;-65
2021/09/17 11:21:31;;;;;;;;;;;20.50;67.80;;;;;;5033034;28;19914;-65
2021/09/17 11:23:56;;;;;;;;;;;20.50;68.90;;;;;;5025520;28;20394;-67
2021/09/17 11:26:25;;;;;;;;;;;20.50;69.50;;;;;;5018684;28;19988;-66
2021/09/17 11:28:57;;;;;;;;;;;20.50;69.80;;;;;;5017525;28;20311;-65
2021/09/17 11:31:25;;;;;;;;;;;20.60;69.90;;;;;;5052710;28;19921;-68
2021/09/17 11:34:07;;;;;;;;;;;20.50;70.10;;;;;;5027958;28;19928;-67
2021/09/17 11:36:36;;;;;;;;;;;20.50;70.20;;;;;;5037381;28;20656;-65
2021/09/17 11:39:10;;;;;;;;;;;20.50;69.90;;;;;;5030645;28;19910;-65
2021/09/17 11:41:37;;;;;;;;;;;20.60;70.50;;;;;;5041230;28;20382;-68
2021/09/17 11:44:02;;;;;;;;;;;20.60;70.30;;;;;;5024225;28;20009;-68
2021/09/17 11:46:27;;;;;;;;;;;20.60;70.50;;;;;;5028649;28;20008;-67
2021/09/17 11:48:53;;;;;;;;;;;20.60;70.40;;;;;;5029549;28;20375;-68
2021/09/17 11:51:18;;;;;;;;;;;20.50;70.40;;;;;;5024383;28;19913;-67
2021/09/17 11:53:44;;;;;;;;;;;20.60;70.30;;;;;;5030378;28;20137;-66
2021/09/17 11:56:10;;;;;;;;;;;20.50;70.40;;;;;;5034100;28;20275;-67
2021/09/17 11:58:45;;;;;;;;;;;20.60;70.40;;;;;;5043085;28;19909;-68
2021/09/17 12:01:17;;;;;;;;;;;20.50;70.00;;;;;;5028500;28;19913;-67
2021/09/17 12:03:42;;;;;;;;;;;20.60;70.20;;;;;;5030808;28;19923;-68
2021/09/17 12:06:08;;;;;;;;;;;20.60;69.90;;;;;;5038428;28;20087;-68
2021/09/17 12:08:34;;;;;;;;;;;20.60;70.00;;;;;;5032446;28;19924;-68
2021/09/17 12:11:00;;;;;;;;;;;20.60;69.60;;;;;;5036232;28;19914;-67
2021/09/17 12:13:25;;;;;;;;;;;20.50;69.60;;;;;;5006642;28;19923;-68
2021/09/17 12:15:54;;;;;;;;;;;20.60;69.50;;;;;;5007345;28;19929;-67
2021/09/17 12:18:20;;;;;;;;;;;20.60;69.30;;;;;;5037770;28;20324;-67
2021/09/17 12:20:54;;;;;;;;;;;20.60;68.70;;;;;;5030434;28;19913;-67
2021/09/17 12:23:20;;;;;;;;;;;20.50;68.70;;;;;;5029788;28;20379;-66
2021/09/17 12:25:46;;;;;;;;;;;20.50;69.00;;;;;;5037261;28;19913;-67
2021/09/17 12:28:13;;;;;;;;;;;20.50;68.80;;;;;;5033393;28;19962;-67
2021/09/17 12:30:39;;;;;;;;;;;20.50;68.80;;;;;;5030269;28;19944;-67
2021/09/17 12:33:04;;;;;;;;;;;20.50;68.70;;;;;;5019580;28;20373;-67
2021/09/17 12:35:30;;;;;;;;;;;20.50;69.40;;;;;;5024609;28;20260;-67
2021/09/17 12:37:55;;;;;;;;;;;20.50;69.40;;;;;;5027818;28;19921;-67
2021/09/17 12:40:21;;;;;;;;;;;20.50;69.50;;;;;;5018910;28;19922;-67
2021/09/17 12:43:03;;;;;;;;;;;20.50;69.60;;;;;;5036682;28;19960;-66
2021/09/17 12:45:29;;;;;;;;;;;20.50;69.60;;;;;;5031594;28;19913;-67
2021/09/17 12:47:55;;;;;;;;;;;20.50;69.20;;;;;;5015377;28;19970;-66
2021/09/17 12:50:27;;;;;;;;;;;20.50;69.20;;;;;;5036897;28;19928;-67
2021/09/17 12:52:52;;;;;;;;;;;20.50;69.40;;;;;;5028946;28;19967;-67
2021/09/17 12:55:21;;;;;;;;;;;20.50;69.60;;;;;;5028858;28;20326;-67
2021/09/17 12:57:59;;;;;;;;;;;20.50;68.90;;;;;;5038901;28;20000;-67
2021/09/17 13:00:25;;;;;;;;;;;20.50;69.50;;;;;;5043270;28;20007;-68
2021/09/17 13:02:53;;;;;;;;;;;20.50;69.30;;;;;;5015326;28;19913;-65
2021/09/17 13:05:19;;;;;;;;;;;20.50;69.10;;;;;;5023418;28;19913;-68
2021/09/17 13:07:44;;;;;;;;;;;20.50;69.50;;;;;;5022945;28;20134;-68
2021/09/17 13:10:10;;;;;;;;;;;20.50;69.30;;;;;;5025601;28;19913;-67
2021/09/17 13:12:35;;;;;;;;;;;20.50;69.90;;;;;;5032701;28;19932;-66
2021/09/17 13:15:01;;;;;;;;;;;20.50;68.70;;;;;;5032010;28;19921;-67
2021/09/17 13:17:26;;;;;;;;;;;20.50;68.40;;;;;;5035725;28;19914;-66
2021/09/17 13:19:52;;;;;;;;;;;20.50;69.10;;;;;;5042696;28;20350;-65
2021/09/17 13:22:17;;;;;;;;;;;20.50;69.00;;;;;;5039062;28;19912;-67
2021/09/17 13:24:42;;;;;;;;;;;20.50;69.40;;;;;;5040617;28;19980;-66
2021/09/17 13:27:08;;;;;;;;;;;20.50;69.10;;;;;;5027186;28;20364;-66
2021/09/17 13:29:33;;;;;;;;;;;20.50;69.70;;;;;;5037351;28;19913;-66
2021/09/17 13:31:59;;;;;;;;;;;20.50;69.70;;;;;;5038207;28;19955;-65
2021/09/17 13:34:24;;;;;;;;;;;20.50;69.60;;;;;;5042858;28;20387;-66
2021/09/17 13:36:50;;;;;;;;;;;20.50;68.40;;;;;;5030665;28;19913;-66
2021/09/17 13:39:15;;;;;;;;;;;20.50;69.10;;;;;;5030011;28;19913;-68
2021/09/17 13:41:41;;;;;;;;;;;20.50;69.70;;;;;;5040674;28;20346;-66
2021/09/17 13:44:06;;;;;;;;;;;20.50;69.30;;;;;;5035715;28;19916;-67
2021/09/17 13:46:31;;;;;;;;;;;20.50;69.40;;;;;;5034564;28;19913;-65
2021/09/17 13:48:57;;;;;;;;;;;20.50;69.40;;;;;;5039810;28;20196;-65
2021/09/17 13:51:22;;;;;;;;;;;20.50;69.30;;;;;;5037838;28;20362;-67
2021/09/17 13:53:48;;;;;;;;;;;20.50;69.50;;;;;;5035122;28;19962;-65
2021/09/17 13:56:13;;;;;;;;;;;20.50;69.70;;;;;;5038429;28;19920;-64
2021/09/17 13:58:39;;;;;;;;;;;20.40;69.60;;;;;;5041995;28;20410;-67
2021/09/17 14:01:04;;;;;;;;;;;20.50;69.40;;;;;;5033580;28;20279;-67
2021/09/17 14:03:30;;;;;;;;;;;20.50;69.80;;;;;;5032111;28;20151;-67
2021/09/17 14:05:56;;;;;;;;;;;20.50;70.20;;;;;;5018045;28;19913;-67
2021/09/17 14:08:21;;;;;;;;;;;20.50;70.50;;;;;;5045865;28;19917;-64
2021/09/17 14:10:47;;;;;;;;;;;20.40;70.60;;;;;;5026947;28;19964;-66